createdAt,value
2023-03-28T00:01:00.569Z,3.50
2023-03-28T00:03:29.175Z,3.50
2023-03-28T00:05:57.824Z,3.50
2023-03-28T00:08:24.917Z,3.50
2023-03-28T00:10:51.667Z,3.50
2023-03-28T00:13:19.960Z,3.50
2023-03-28T00:15:47.089Z,3.50
2023-03-28T00:18:14.489Z,3.40
2023-03-28T00:20:46.035Z,3.40
2023-03-28T00:23:14.906Z,3.40
2023-03-28T00:25:41.982Z,3.40
2023-03-28T00:28:09.155Z,3.40
2023-03-28T00:30:35.996Z,3.40
2023-03-28T00:33:05.120Z,3.30
2023-03-28T00:35:32.421Z,3.40
2023-03-28T00:37:59.263Z,3.30
2023-03-28T00:40:26.380Z,3.30
2023-03-28T00:42:53.675Z,3.20
2023-03-28T00:45:21.592Z,3.20
2023-03-28T00:47:58.882Z,3.20
2023-03-28T00:50:28.339Z,3.20
2023-03-28T00:53:18.022Z,3.20
2023-03-28T00:55:46.770Z,3.10
2023-03-28T00:58:16.270Z,3.20
2023-03-28T01:00:46.973Z,3.10
2023-03-28T01:03:16.058Z,3.10
2023-03-28T01:05:43.844Z,3.00
2023-03-28T01:08:10.768Z,3.00
2023-03-28T01:10:37.625Z,3.00
2023-03-28T01:13:07.163Z,3.00
2023-03-28T01:15:34.234Z,3.00
2023-03-28T01:18:03.380Z,2.90
2023-03-28T01:20:42.082Z,2.90
2023-03-28T01:23:28.229Z,2.80
2023-03-28T01:26:04.432Z,2.80
2023-03-28T01:28:31.417Z,2.80
2023-03-28T01:31:01.367Z,2.70
2023-03-28T01:34:00.331Z,2.70
2023-03-28T01:36:51.729Z,2.70
2023-03-28T01:39:27.307Z,2.70
2023-03-28T01:41:59.084Z,2.70
2023-03-28T01:44:38.642Z,2.60
2023-03-28T01:47:11.322Z,2.60
2023-03-28T01:49:49.844Z,2.60
2023-03-28T01:52:28.962Z,2.60
2023-03-28T01:55:22.583Z,2.60
2023-03-28T01:57:53.009Z,2.50
2023-03-28T02:00:35.243Z,2.50
2023-03-28T02:03:11.181Z,2.50
2023-03-28T02:05:44.343Z,2.50
2023-03-28T02:08:15.769Z,2.50
2023-03-28T02:10:49.674Z,2.40
2023-03-28T02:13:44.735Z,2.40
2023-03-28T02:16:33.613Z,2.40
2023-03-28T02:19:19.837Z,2.30
2023-03-28T02:22:12.575Z,2.30
2023-03-28T02:25:07.726Z,2.30
2023-03-28T02:27:46.475Z,2.30
2023-03-28T02:30:32.551Z,2.20
2023-03-28T02:33:08.689Z,2.20
2023-03-28T02:35:51.118Z,2.20
2023-03-28T02:38:24.184Z,2.20
2023-03-28T02:40:55.114Z,2.20
2023-03-28T02:43:33.375Z,2.20
2023-03-28T02:46:06.344Z,2.10
2023-03-28T02:48:36.184Z,2.00
2023-03-28T02:51:04.091Z,2.00
2023-03-28T02:53:51.106Z,2.00
2023-03-28T02:56:24.706Z,2.00
2023-03-28T02:59:08.973Z,2.00
2023-03-28T03:01:36.971Z,1.90
2023-03-28T03:04:04.190Z,1.80
2023-03-28T03:06:35.153Z,1.80
2023-03-28T03:09:02.856Z,1.80
2023-03-28T03:11:29.767Z,1.80
2023-03-28T03:14:00.129Z,1.70
2023-03-28T03:16:29.293Z,1.70
2023-03-28T03:18:57.527Z,1.70
2023-03-28T03:21:25.208Z,1.70
2023-03-28T03:23:52.083Z,1.70
2023-03-28T03:26:19.027Z,1.70
2023-03-28T03:28:55.151Z,1.70
2023-03-28T03:31:26.322Z,1.70
2023-03-28T03:34:11.643Z,1.70
2023-03-28T03:36:44.604Z,1.60
2023-03-28T03:39:12.050Z,1.60
2023-03-28T03:41:39.169Z,1.70
2023-03-28T03:44:06.401Z,1.60
2023-03-28T03:46:33.277Z,1.60
2023-03-28T03:49:00.245Z,1.60
2023-03-28T03:51:27.219Z,1.60
2023-03-28T03:53:57.389Z,1.50
2023-03-28T03:56:31.934Z,1.50
2023-03-28T03:59:00.811Z,1.50
2023-03-28T04:01:31.435Z,1.50
2023-03-28T04:04:15.582Z,1.40
2023-03-28T04:07:02.235Z,1.50
2023-03-28T04:09:29.789Z,1.40
2023-03-28T04:12:00.289Z,1.40
2023-03-28T04:14:27.513Z,1.40
2023-03-28T04:17:16.114Z,1.40
2023-03-28T04:19:43.887Z,1.30
2023-03-28T04:22:12.984Z,1.30
2023-03-28T04:24:45.865Z,1.40
2023-03-28T04:27:21.227Z,1.30
2023-03-28T04:29:49.309Z,1.30
2023-03-28T04:32:35.784Z,1.30
2023-03-28T04:35:07.875Z,1.30
2023-03-28T04:37:37.744Z,1.30
2023-03-28T04:40:10.818Z,1.30
2023-03-28T04:42:49.911Z,1.30
2023-03-28T04:45:46.288Z,1.30
2023-03-28T04:48:16.444Z,1.30
2023-03-28T04:50:43.227Z,1.30
2023-03-28T04:53:10.518Z,1.30
2023-03-28T04:55:50.106Z,1.30
2023-03-28T04:58:23.467Z,1.30
2023-03-28T05:00:51.032Z,1.30
2023-03-28T05:03:37.211Z,1.30
2023-03-28T05:06:04.658Z,1.30
2023-03-28T05:08:32.989Z,1.30
2023-03-28T05:11:00.883Z,1.20
2023-03-28T05:13:28.217Z,1.30
2023-03-28T05:16:05.570Z,1.30
2023-03-28T05:18:51.437Z,1.30
2023-03-28T05:21:24.590Z,1.20
2023-03-28T05:23:52.518Z,1.20
2023-03-28T05:26:22.140Z,1.20
2023-03-28T05:28:49.358Z,1.30
2023-03-28T05:31:17.392Z,1.30
2023-03-28T05:33:52.387Z,1.30
2023-03-28T05:36:31.382Z,1.30
2023-03-28T05:38:58.238Z,1.30
2023-03-28T05:41:25.842Z,1.30
2023-03-28T05:43:52.655Z,1.30
2023-03-28T05:46:34.171Z,1.30
2023-03-28T05:49:01.765Z,1.30
2023-03-28T05:51:28.628Z,1.30
2023-03-28T05:53:56.317Z,1.30
2023-03-28T05:56:33.518Z,1.40
2023-03-28T05:59:12.537Z,1.40
2023-03-28T06:01:42.701Z,1.40
2023-03-28T06:04:10.764Z,1.50
2023-03-28T06:06:37.830Z,1.50
2023-03-28T06:09:05.931Z,1.50
2023-03-28T06:11:46.498Z,1.50
2023-03-28T06:14:13.343Z,1.60
2023-03-28T06:16:40.439Z,1.60
2023-03-28T06:19:17.770Z,1.70
2023-03-28T06:21:52.167Z,1.80
2023-03-28T06:24:19.164Z,1.80
2023-03-28T06:26:46.590Z,1.90
2023-03-28T06:29:19.819Z,2.00
2023-03-28T06:31:48.835Z,2.00
2023-03-28T06:34:17.261Z,2.10
2023-03-28T06:36:59.984Z,2.30
2023-03-28T06:39:35.972Z,2.30
2023-03-28T06:42:03.777Z,2.30
2023-03-28T06:44:39.266Z,2.40
2023-03-28T06:47:24.429Z,2.60
2023-03-28T06:49:52.341Z,2.50
2023-03-28T06:52:32.914Z,2.60
2023-03-28T06:55:01.149Z,2.70
2023-03-28T06:57:27.953Z,2.80
2023-03-28T07:00:07.491Z,2.80
2023-03-28T07:02:54.389Z,2.80
2023-03-28T07:05:22.832Z,2.90
2023-03-28T07:07:49.901Z,2.90
2023-03-28T07:10:16.892Z,3.00
2023-03-28T07:12:43.784Z,3.00
2023-03-28T07:15:11.906Z,3.10
2023-03-28T07:17:39.042Z,3.00
2023-03-28T07:20:06.273Z,3.10
2023-03-28T07:22:33.120Z,3.10
2023-03-28T07:24:59.932Z,3.10
2023-03-28T07:27:26.788Z,3.20
2023-03-28T07:29:53.670Z,3.20
2023-03-28T07:32:20.476Z,3.20
2023-03-28T07:34:47.255Z,3.30
2023-03-28T07:37:20.575Z,3.30
2023-03-28T07:40:07.814Z,3.40
2023-03-28T07:42:34.760Z,3.40
2023-03-28T07:45:01.511Z,3.40
2023-03-28T07:47:30.485Z,3.50
2023-03-28T07:49:57.661Z,3.50
2023-03-28T07:52:26.075Z,3.60
2023-03-28T07:54:53.917Z,3.60
2023-03-28T07:57:20.957Z,3.60
2023-03-28T08:00:13.118Z,3.70
2023-03-28T08:02:57.397Z,3.80
2023-03-28T08:05:26.510Z,3.80
2023-03-28T08:07:53.910Z,3.90
2023-03-28T08:10:21.074Z,3.90
2023-03-28T08:12:48.039Z,4.00
2023-03-28T08:15:14.808Z,4.20
2023-03-28T08:17:41.663Z,4.20
2023-03-28T08:20:10.308Z,4.30
2023-03-28T08:22:46.481Z,4.40
2023-03-28T08:25:39.327Z,4.50
2023-03-28T08:28:06.778Z,4.60
2023-03-28T08:30:34.694Z,4.70
2023-03-28T08:33:04.593Z,4.70
2023-03-28T08:35:32.977Z,4.80
2023-03-28T08:38:09.736Z,4.80
2023-03-28T08:40:38.930Z,4.90
2023-03-28T08:43:26.569Z,4.90
2023-03-28T08:45:55.665Z,4.90
2023-03-28T08:48:35.302Z,4.90
2023-03-28T08:51:28.913Z,4.90
2023-03-28T08:54:16.534Z,4.90
2023-03-28T08:56:44.938Z,5.00
2023-03-28T08:59:18.391Z,5.00
2023-03-28T09:01:45.437Z,5.10
2023-03-28T09:04:29.338Z,5.10
2023-03-28T09:07:15.980Z,5.20
2023-03-28T09:09:50.252Z,5.30
2023-03-28T09:13:00.930Z,5.30
2023-03-28T09:15:28.833Z,5.40
2023-03-28T09:18:04.807Z,5.40
2023-03-28T09:20:48.986Z,5.40
2023-03-28T09:23:29.566Z,5.40
2023-03-28T09:26:32.565Z,5.40
2023-03-28T09:29:13.771Z,5.30
2023-03-28T09:31:46.534Z,5.30
2023-03-28T09:34:20.936Z,5.20
2023-03-28T09:36:53.994Z,5.20
2023-03-28T09:39:34.048Z,5.30
2023-03-28T09:42:04.079Z,5.30
2023-03-28T09:45:10.273Z,5.40
2023-03-28T09:47:55.741Z,5.50
2023-03-28T09:50:26.448Z,5.60
2023-03-28T09:52:57.379Z,5.60
2023-03-28T09:55:29.115Z,5.80
2023-03-28T09:58:02.790Z,5.80
2023-03-28T10:00:33.809Z,5.90
2023-03-28T10:03:32.420Z,5.90
2023-03-28T10:06:18.164Z,6.00
2023-03-28T10:08:45.859Z,6.10
2023-03-28T10:11:28.719Z,6.10
2023-03-28T10:13:57.246Z,6.00
2023-03-28T10:16:34.494Z,6.10
2023-03-28T10:19:21.324Z,6.20
2023-03-28T10:22:04.354Z,6.20
2023-03-28T10:24:33.520Z,6.30
2023-03-28T10:27:17.274Z,6.40
2023-03-28T10:29:45.009Z,6.40
2023-03-28T10:32:22.834Z,6.40
2023-03-28T10:35:09.846Z,6.50
2023-03-28T10:37:47.015Z,6.50
2023-03-28T10:40:30.537Z,6.50
2023-03-28T10:43:16.339Z,6.40
2023-03-28T10:45:51.453Z,6.50
2023-03-28T10:48:53.643Z,6.50
2023-03-28T10:51:23.248Z,6.50
2023-03-28T10:54:09.209Z,6.50
2023-03-28T10:56:42.379Z,6.40
2023-03-28T10:59:30.959Z,6.50
2023-03-28T11:02:14.446Z,6.50
2023-03-28T11:04:41.347Z,6.50
2023-03-28T11:07:32.081Z,6.50
2023-03-28T11:10:27.184Z,6.50
2023-03-28T11:13:20.758Z,6.50
2023-03-28T11:15:53.757Z,6.50
2023-03-28T11:18:47.316Z,6.50
2023-03-28T11:21:29.477Z,6.50
2023-03-28T11:23:56.226Z,6.60
2023-03-28T11:26:44.557Z,6.70
2023-03-28T11:30:00.241Z,6.70
2023-03-28T11:32:51.074Z,6.70
2023-03-28T11:35:31.654Z,6.70
2023-03-28T11:38:09.481Z,6.70
2023-03-28T11:40:54.686Z,6.70
2023-03-28T11:43:44.652Z,6.80
2023-03-28T11:46:25.059Z,6.80
2023-03-28T11:48:58.006Z,6.80
2023-03-28T11:51:31.894Z,6.80
2023-03-28T11:54:09.515Z,6.80
2023-03-28T11:56:42.557Z,6.90
2023-03-28T11:59:35.467Z,6.90
2023-03-28T12:02:18.576Z,6.90
2023-03-28T12:04:55.845Z,6.90
2023-03-28T12:07:27.163Z,7.00
2023-03-28T12:09:58.840Z,7.00
2023-03-28T12:12:32.052Z,7.10
2023-03-28T12:15:19.281Z,7.10
2023-03-28T12:17:54.551Z,7.10
2023-03-28T12:20:30.967Z,7.10
2023-03-28T12:23:03.355Z,7.10
2023-03-28T12:25:58.868Z,7.00
2023-03-28T12:28:35.748Z,7.00
2023-03-28T12:31:08.797Z,7.00
2023-03-28T12:33:54.902Z,6.90
2023-03-28T12:36:54.751Z,6.90
2023-03-28T12:39:34.872Z,6.80
2023-03-28T12:42:09.393Z,6.80
2023-03-28T12:44:44.553Z,6.80
2023-03-28T12:47:14.596Z,6.80
2023-03-28T12:49:44.456Z,6.80
2023-03-28T12:52:25.602Z,6.80
2023-03-28T12:54:53.797Z,6.80
2023-03-28T12:57:45.186Z,6.80
2023-03-28T13:01:10.907Z,6.90
2023-03-28T13:03:47.129Z,7.00
2023-03-28T13:06:24.296Z,6.90
2023-03-28T13:09:01.867Z,7.00
2023-03-28T13:11:29.105Z,7.10
2023-03-28T13:14:14.727Z,7.20
2023-03-28T13:16:42.236Z,7.30
2023-03-28T13:19:10.071Z,7.30
2023-03-28T13:22:00.050Z,7.30
2023-03-28T13:24:27.064Z,7.30
2023-03-28T13:26:53.870Z,7.40
2023-03-28T13:29:21.150Z,7.50
2023-03-28T13:31:49.400Z,7.50
2023-03-28T13:34:23.735Z,7.50
2023-03-28T13:36:53.853Z,7.60
2023-03-28T13:39:21.866Z,7.60
2023-03-28T13:41:48.686Z,7.70
2023-03-28T13:44:18.929Z,7.70
2023-03-28T13:46:48.039Z,7.70
2023-03-28T13:49:17.580Z,7.70
2023-03-28T13:51:50.506Z,7.70
2023-03-28T13:54:17.358Z,7.60
2023-03-28T13:56:46.842Z,7.60
2023-03-28T13:59:18.108Z,7.70
2023-03-28T14:01:47.293Z,7.70
2023-03-28T14:04:21.958Z,7.80
2023-03-28T14:06:49.317Z,7.80
2023-03-28T14:09:21.643Z,7.90
2023-03-28T14:11:50.048Z,7.90
2023-03-28T14:14:37.228Z,7.90
2023-03-28T14:17:07.595Z,7.90
2023-03-28T14:19:46.108Z,7.90
2023-03-28T14:22:14.654Z,7.80
2023-03-28T14:24:42.406Z,7.80
2023-03-28T14:27:13.924Z,7.90
2023-03-28T14:29:51.626Z,7.90
2023-03-28T14:32:32.855Z,7.90
2023-03-28T14:35:19.584Z,7.90
2023-03-28T14:37:47.697Z,7.90
2023-03-28T14:40:18.867Z,8.00
2023-03-28T14:42:46.963Z,8.00
2023-03-28T14:45:14.215Z,8.00
2023-03-28T14:47:42.325Z,8.00
2023-03-28T14:50:15.330Z,7.90
2023-03-28T14:52:44.523Z,7.90
2023-03-28T14:55:16.585Z,7.90
2023-03-28T14:57:47.847Z,8.00
2023-03-28T15:00:16.669Z,8.10
2023-03-28T15:02:44.819Z,8.10
2023-03-28T15:05:16.580Z,8.00
2023-03-28T15:07:43.502Z,8.00
2023-03-28T15:10:11.784Z,8.10
2023-03-28T15:12:46.788Z,8.10
2023-03-28T15:15:14.996Z,8.10
2023-03-28T15:17:42.038Z,8.10
2023-03-28T15:20:10.442Z,8.10
2023-03-28T15:22:37.275Z,8.10
2023-03-28T15:25:05.890Z,8.00
2023-03-28T15:27:33.504Z,8.00
2023-03-28T15:30:05.723Z,8.00
2023-03-28T15:32:34.971Z,8.00
2023-03-28T15:35:04.672Z,8.00
2023-03-28T15:37:41.017Z,8.00
2023-03-28T15:40:18.901Z,8.10
2023-03-28T15:42:50.010Z,8.10
2023-03-28T15:45:19.844Z,8.10
2023-03-28T15:47:47.710Z,8.10
2023-03-28T15:50:35.820Z,8.20
2023-03-28T15:53:05.138Z,8.20
2023-03-28T15:55:32.135Z,8.20
2023-03-28T15:57:59.079Z,8.30
2023-03-28T16:00:38.353Z,8.30
2023-03-28T16:03:20.582Z,8.20
2023-03-28T16:05:48.326Z,8.20
2023-03-28T16:08:28.398Z,8.20
2023-03-28T16:10:55.239Z,8.10
2023-03-28T16:13:37.025Z,8.10
2023-03-28T16:16:32.547Z,8.10
2023-03-28T16:19:26.025Z,8.10
2023-03-28T16:21:53.850Z,8.10
2023-03-28T16:24:20.676Z,8.10
2023-03-28T16:26:47.787Z,8.10
2023-03-28T16:29:14.943Z,8.10
2023-03-28T16:31:42.294Z,8.00
2023-03-28T16:34:10.182Z,8.00
2023-03-28T16:36:37.930Z,7.90
2023-03-28T16:39:05.443Z,7.90
2023-03-28T16:41:32.576Z,7.90
2023-03-28T16:43:59.448Z,7.80
2023-03-28T16:46:27.428Z,7.80
2023-03-28T16:48:54.447Z,7.80
2023-03-28T16:51:21.295Z,7.80
2023-03-28T16:53:48.396Z,7.80
2023-03-28T16:56:15.485Z,7.70
2023-03-28T16:58:42.690Z,7.70
2023-03-28T17:01:11.241Z,7.70
2023-03-28T17:03:38.496Z,7.70
2023-03-28T17:06:08.103Z,7.60
2023-03-28T17:08:35.889Z,7.60
2023-03-28T17:11:04.550Z,7.60
2023-03-28T17:13:34.342Z,7.60
2023-03-28T17:16:01.531Z,7.50
2023-03-28T17:18:29.842Z,7.50
2023-03-28T17:21:04.964Z,7.50
2023-03-28T17:23:32.843Z,7.40
2023-03-28T17:25:59.911Z,7.40
2023-03-28T17:28:27.227Z,7.40
2023-03-28T17:30:54.525Z,7.30
2023-03-28T17:33:22.154Z,7.30
2023-03-28T17:35:49.278Z,7.30
2023-03-28T17:38:16.266Z,7.30
2023-03-28T17:40:46.785Z,7.20
2023-03-28T17:43:13.619Z,7.20
2023-03-28T17:45:40.572Z,7.20
2023-03-28T17:48:07.857Z,7.20
2023-03-28T17:50:34.605Z,7.20
2023-03-28T17:53:01.496Z,7.10
2023-03-28T17:55:28.709Z,7.10
2023-03-28T17:57:55.626Z,7.10
2023-03-28T18:00:22.679Z,7.00
2023-03-28T18:02:51.489Z,7.00
2023-03-28T18:05:37.413Z,7.00
2023-03-28T18:08:05.234Z,7.00
2023-03-28T18:10:32.049Z,7.00
2023-03-28T18:12:59.541Z,7.00
2023-03-28T18:15:26.277Z,7.00
2023-03-28T18:17:53.072Z,7.00
2023-03-28T18:20:20.839Z,7.00
2023-03-28T18:22:48.516Z,7.00
2023-03-28T18:25:15.420Z,6.90
2023-03-28T18:27:42.161Z,6.90
2023-03-28T18:30:09.232Z,6.90
2023-03-28T18:32:36.323Z,6.90
2023-03-28T18:35:07.039Z,6.90
2023-03-28T18:37:34.783Z,6.90
2023-03-28T18:40:01.845Z,6.90
2023-03-28T18:42:29.915Z,6.80
2023-03-28T18:44:57.129Z,6.80
2023-03-28T18:47:24.236Z,6.80
2023-03-28T18:49:51.127Z,6.80
2023-03-28T18:52:17.938Z,6.80
2023-03-28T18:54:46.739Z,6.80
2023-03-28T18:57:13.693Z,6.70
2023-03-28T18:59:46.299Z,6.80
2023-03-28T19:02:16.458Z,6.70
2023-03-28T19:04:43.280Z,6.70
2023-03-28T19:07:10.055Z,6.70
2023-03-28T19:09:38.220Z,6.70
2023-03-28T19:12:05.007Z,6.70
2023-03-28T19:14:31.950Z,6.70
2023-03-28T19:16:59.012Z,6.60
2023-03-28T19:19:26.083Z,6.70
2023-03-28T19:21:55.344Z,6.60
2023-03-28T19:24:25.753Z,6.60
2023-03-28T19:26:54.025Z,6.60
2023-03-28T19:29:24.949Z,6.60
2023-03-28T19:31:56.849Z,6.60
2023-03-28T19:34:29.578Z,6.60
2023-03-28T19:36:59.536Z,6.60
2023-03-28T19:39:26.281Z,6.50
2023-03-28T19:41:54.068Z,6.50
2023-03-28T19:44:20.888Z,6.60
2023-03-28T19:46:47.744Z,6.60
2023-03-28T19:49:15.635Z,6.60
2023-03-28T19:51:43.543Z,6.60
2023-03-28T19:54:13.111Z,6.60
2023-03-28T19:56:44.891Z,6.50
2023-03-28T19:59:13.791Z,6.50
2023-03-28T20:01:40.620Z,6.50
2023-03-28T20:04:07.627Z,6.50
2023-03-28T20:06:34.524Z,6.50
2023-03-28T20:09:01.707Z,6.40
2023-03-28T20:11:29.019Z,6.50
2023-03-28T20:13:56.927Z,6.40
2023-03-28T20:16:29.892Z,6.50
2023-03-28T20:18:58.368Z,6.40
2023-03-28T20:21:25.188Z,6.40
2023-03-28T20:23:52.746Z,6.40
2023-03-28T20:26:27.114Z,6.40
2023-03-28T20:28:56.861Z,6.40
2023-03-28T20:31:23.845Z,6.40
2023-03-28T20:33:54.487Z,6.40
2023-03-28T20:36:21.614Z,6.40
2023-03-28T20:38:48.974Z,6.40
2023-03-28T20:41:19.890Z,6.40
2023-03-28T20:43:47.224Z,6.40
2023-03-28T20:46:19.149Z,6.40
2023-03-28T20:48:52.144Z,6.40
2023-03-28T20:51:26.184Z,6.40
2023-03-28T20:53:58.593Z,6.40
2023-03-28T20:56:27.568Z,6.40
2023-03-28T20:58:58.265Z,6.40
2023-03-28T21:01:28.469Z,6.40
2023-03-28T21:03:57.435Z,6.40
2023-03-28T21:06:38.129Z,6.40
2023-03-28T21:09:10.608Z,6.40
2023-03-28T21:11:47.148Z,6.40
2023-03-28T21:14:14.360Z,6.40
2023-03-28T21:16:41.766Z,6.40
2023-03-28T21:19:14.176Z,6.40
2023-03-28T21:21:42.355Z,6.40
2023-03-28T21:24:09.261Z,6.40
2023-03-28T21:26:36.579Z,6.40
2023-03-28T21:29:04.578Z,6.40
2023-03-28T21:31:57.571Z,6.30
2023-03-28T21:34:30.869Z,6.40
2023-03-28T21:36:57.669Z,6.30
2023-03-28T21:39:24.578Z,6.30
2023-03-28T21:41:51.644Z,6.30
2023-03-28T21:44:18.907Z,6.30
2023-03-28T21:46:46.804Z,6.30
2023-03-28T21:49:13.637Z,6.30
2023-03-28T21:51:42.151Z,6.20
2023-03-28T21:54:09.038Z,6.30
2023-03-28T21:56:37.056Z,6.20
2023-03-28T21:59:05.007Z,6.20
2023-03-28T22:01:31.977Z,6.20
2023-03-28T22:03:58.854Z,6.20
2023-03-28T22:06:25.793Z,6.20
2023-03-28T22:08:55.152Z,6.20
2023-03-28T22:11:29.614Z,6.10
2023-03-28T22:14:04.603Z,6.10
2023-03-28T22:16:33.648Z,6.10
2023-03-28T22:19:01.074Z,6.10
2023-03-28T22:21:34.037Z,6.10
2023-03-28T22:24:07.180Z,6.10
2023-03-28T22:26:35.987Z,6.10
2023-03-28T22:29:03.341Z,6.00
2023-03-28T22:31:31.510Z,6.00
2023-03-28T22:33:58.318Z,6.00
2023-03-28T22:36:26.201Z,6.00
2023-03-28T22:38:54.723Z,6.00
2023-03-28T22:41:21.683Z,6.00
2023-03-28T22:43:49.061Z,6.00
2023-03-28T22:46:16.992Z,6.00
2023-03-28T22:48:43.994Z,6.00
2023-03-28T22:51:15.783Z,6.00
2023-03-28T22:53:42.732Z,6.00
2023-03-28T22:56:09.552Z,6.00
2023-03-28T22:58:37.482Z,6.00
2023-03-28T23:01:04.566Z,5.90
2023-03-28T23:03:38.319Z,6.00
2023-03-28T23:06:06.743Z,6.00
2023-03-28T23:08:35.569Z,5.90
2023-03-28T23:11:02.623Z,6.00
2023-03-28T23:13:29.661Z,6.00
2023-03-28T23:15:56.446Z,6.00
2023-03-28T23:18:23.334Z,6.00
2023-03-28T23:20:51.071Z,6.00
2023-03-28T23:23:18.846Z,6.00
2023-03-28T23:25:47.359Z,6.00
2023-03-28T23:28:14.658Z,6.00
2023-03-28T23:30:41.698Z,6.00
2023-03-28T23:33:08.962Z,6.10
2023-03-28T23:35:36.001Z,6.00
2023-03-28T23:38:02.868Z,6.00
2023-03-28T23:40:32.446Z,6.00
2023-03-28T23:42:59.249Z,6.10
2023-03-28T23:45:26.132Z,6.00
2023-03-28T23:47:52.939Z,6.00
2023-03-28T23:50:19.737Z,6.10
2023-03-28T23:52:46.562Z,6.00
2023-03-28T23:55:13.975Z,6.00
2023-03-28T23:57:41.399Z,6.00
